Time;durP1;ratioP1;P1;durP2;ratioP2;P2;SDS_P1;SDS_P2;PMS_P1;PMS_P2;Temp;Humidity;BMP_temperature;BMP_pressure;BME280_temperature;BME280_humidity;BME280_pressure;Samples;Min_cycle;Max_cycle;Signal;HPM_P1;HPM_P2
2023/07/05 00:01:42;;;;;;;1999.90;999.90;;;18.30;99.90;;;;;;5091676;28;20020;-71
2023/07/05 00:04:10;;;;;;;1999.90;999.90;;;19.00;99.90;;;;;;5092760;28;20072;-72
2023/07/05 00:06:37;;;;;;;1999.90;999.90;;;19.80;99.90;;;;;;5088855;28;20122;-74
2023/07/05 00:09:04;;;;;;;1999.90;999.90;;;20.30;99.90;;;;;;5083197;28;20120;-74
2023/07/05 00:11:32;;;;;;;1999.90;999.90;;;21.20;99.90;;;;;;5087816;28;20027;-74
2023/07/05 00:13:59;;;;;;;1999.90;999.90;;;22.20;99.90;;;;;;5090024;28;20024;-74
2023/07/05 00:16:27;;;;;;;1999.90;999.90;;;23.10;99.90;;;;;;5085375;28;20043;-74
2023/07/05 00:18:56;;;;;;;1999.90;999.90;;;23.50;99.90;;;;;;5094299;28;20068;-73
2023/07/05 00:21:24;;;;;;;1999.90;999.90;;;23.90;99.90;;;;;;5098880;28;20031;-73
2023/07/05 00:23:51;;;;;;;1999.90;999.90;;;24.30;99.90;;;;;;5097556;28;20401;-73
2023/07/05 00:26:18;;;;;;;1999.90;999.90;;;24.90;99.90;;;;;;5093811;28;20024;-75
2023/07/05 00:28:46;;;;;;;1999.90;999.90;;;25.20;99.80;;;;;;5092450;28;20028;-73
2023/07/05 00:31:13;;;;;;;1999.90;999.90;;;25.30;98.90;;;;;;5092194;28;20016;-72
2023/07/05 00:33:41;;;;;;;1999.90;999.90;;;25.40;98.70;;;;;;5100910;28;20466;-73
2023/07/05 00:36:08;;;;;;;1999.90;999.90;;;25.50;99.10;;;;;;5087025;28;20126;-74
2023/07/05 00:38:35;;;;;;;1999.90;999.90;;;25.90;98.50;;;;;;5093390;28;20020;-72
2023/07/05 00:41:03;;;;;;;1999.90;999.90;;;26.30;97.70;;;;;;5091355;28;20035;-72
2023/07/05 00:43:30;;;;;;;1999.90;999.90;;;26.80;96.10;;;;;;5091274;28;20101;-72
2023/07/05 00:46:21;;;;;;;1999.90;999.90;;;26.80;95.20;;;;;;5092428;28;20028;-73
2023/07/05 00:49:13;;;;;;;1999.90;999.90;;;26.70;95.50;;;;;;5090678;28;20024;-73
2023/07/05 00:51:59;;;;;;;1999.90;999.90;;;26.30;95.80;;;;;;5099792;28;20049;-73
2023/07/05 00:54:32;;;;;;;1999.90;999.90;;;26.00;97.00;;;;;;5098589;28;20034;-73
2023/07/05 00:57:19;;;;;;;1999.90;999.90;;;26.30;95.90;;;;;;5098599;28;20028;-73
2023/07/05 01:00:00;;;;;;;1999.90;999.90;;;26.50;95.20;;;;;;5091555;28;20111;-72
2023/07/05 01:02:28;;;;;;;1999.90;999.90;;;26.70;95.90;;;;;;5093768;28;20032;-72
2023/07/05 01:04:55;;;;;;;1999.90;999.90;;;27.20;94.90;;;;;;5089337;28;20094;-73
2023/07/05 01:07:22;;;;;;;1999.90;999.90;;;27.60;94.50;;;;;;5100724;28;20055;-72
2023/07/05 01:09:50;;;;;;;1999.90;999.90;;;27.60;95.30;;;;;;5099872;28;20073;-73
2023/07/05 01:12:20;;;;;;;1999.90;999.90;;;27.90;95.20;;;;;;5099520;28;20019;-72
2023/07/05 01:14:58;;;;;;;1999.90;999.90;;;28.30;95.00;;;;;;5094128;28;20027;-72
2023/07/05 01:17:49;;;;;;;1999.90;999.90;;;28.60;94.30;;;;;;5099588;28;20493;-73
2023/07/05 01:21:01;;;;;;;1999.90;999.90;;;28.90;93.60;;;;;;5090178;28;20375;-72
2023/07/05 01:23:52;;;;;;;1999.90;999.90;;;28.90;93.70;;;;;;5053214;28;20104;-72
2023/07/05 01:26:55;;;;;;;1999.90;999.90;;;29.30;91.90;;;;;;5089300;28;20488;-72
2023/07/05 01:29:35;;;;;;;1999.90;999.90;;;29.10;92.00;;;;;;5092335;28;20402;-72
2023/07/05 01:32:19;;;;;;;1999.90;999.90;;;29.10;91.50;;;;;;5091176;28;20103;-72
2023/07/05 01:34:59;;;;;;;1999.90;999.90;;;28.60;92.40;;;;;;5083237;28;20024;-72
2023/07/05 01:37:42;;;;;;;1999.90;999.90;;;28.70;92.80;;;;;;5095421;28;20540;-72
2023/07/05 01:40:38;;;;;;;1999.90;999.90;;;28.90;92.90;;;;;;5087886;28;20123;-73
2023/07/05 01:43:10;;;;;;;1999.90;999.90;;;29.30;92.20;;;;;;5095664;28;20024;-73
2023/07/05 01:46:06;;;;;;;1999.90;999.90;;;29.30;92.60;;;;;;5082698;28;20096;-72
2023/07/05 01:48:51;;;;;;;;;;;29.50;91.90;;;;;;5092275;28;20028;-73
2023/07/05 01:51:49;;;;;;;1999.90;999.90;;;29.40;91.00;;;;;;5091513;28;20321;-72
2023/07/05 01:54:34;;;;;;;1999.90;999.90;;;29.00;91.50;;;;;;5089551;28;20436;-73
2023/07/05 01:57:28;;;;;;;1999.90;999.90;;;28.40;92.70;;;;;;5089428;28;20131;-73
2023/07/05 02:00:07;;;;;;;1999.90;999.90;;;28.40;93.00;;;;;;5088250;28;20676;-72
2023/07/05 02:02:40;;;;;;;1999.90;999.90;;;28.70;92.60;;;;;;5082762;28;20024;-72
2023/07/05 02:05:10;;;;;;;1999.90;999.90;;;29.10;91.80;;;;;;5092563;28;20028;-71
2023/07/05 02:07:37;;;;;;;1999.90;999.90;;;28.80;91.90;;;;;;5109307;28;20080;-72
2023/07/05 02:10:05;;;;;;;1999.90;999.90;;;28.70;92.30;;;;;;5093679;28;20198;-72
2023/07/05 02:12:33;;;;;;;1999.90;999.90;;;28.90;92.30;;;;;;5100207;28;20112;-72
2023/07/05 02:15:00;;;;;;;1999.90;999.90;;;29.20;91.60;;;;;;5096355;28;20024;-73
2023/07/05 02:17:28;;;;;;;1999.90;999.90;;;29.40;91.40;;;;;;5102792;28;20060;-73
2023/07/05 02:19:56;;;;;;;1999.90;999.90;;;28.90;91.40;;;;;;5092946;28;20016;-73
2023/07/05 02:22:23;;;;;;;1999.90;999.90;;;28.60;91.80;;;;;;5100617;28;20092;-73
2023/07/05 02:24:54;;;;;;;1999.90;999.90;;;28.80;93.00;;;;;;5097340;28;20027;-73
2023/07/05 02:27:21;;;;;;;1999.90;999.90;;;29.10;92.60;;;;;;5105733;28;20494;-73
2023/07/05 02:29:50;;;;;;;1999.90;999.90;;;29.50;91.40;;;;;;5094129;27;20033;-73
2023/07/05 02:32:17;;;;;;;1999.90;999.90;;;29.70;90.80;;;;;;5099667;28;20525;-72
2023/07/05 02:34:45;;;;;;;1999.90;999.90;;;29.40;91.40;;;;;;5095617;28;20096;-73
2023/07/05 02:37:13;;;;;;;1999.90;999.90;;;28.70;91.50;;;;;;5094967;28;20023;-73
2023/07/05 02:39:40;;;;;;;1999.90;999.90;;;28.80;92.60;;;;;;5097219;28;20133;-72
2023/07/05 02:42:09;;;;;;;1999.90;999.90;;;29.10;92.80;;;;;;5098601;28;20031;-72
2023/07/05 02:44:37;;;;;;;1999.90;999.90;;;29.10;91.90;;;;;;5098901;28;20481;-71
2023/07/05 02:47:04;;;;;;;1999.90;999.90;;;29.10;90.50;;;;;;5099106;28;20039;-73
2023/07/05 02:49:32;;;;;;;1999.90;999.90;;;28.90;90.50;;;;;;5096313;28;20103;-72
2023/07/05 02:51:59;;;;;;;1999.90;999.90;;;28.60;91.20;;;;;;5097824;28;20028;-73
2023/07/05 02:54:26;;;;;;;1999.90;999.90;;;28.70;92.20;;;;;;5098569;28;20035;-72
2023/07/05 02:56:54;;;;;;;1999.90;999.90;;;28.60;92.30;;;;;;5094805;28;20024;-72
2023/07/05 02:59:21;;;;;;;1999.90;999.90;;;28.60;92.30;;;;;;5095907;28;20081;-72
2023/07/05 03:01:48;;;;;;;1999.90;999.90;;;28.40;92.20;;;;;;5094627;28;20064;-71
2023/07/05 03:04:16;;;;;;;1999.90;999.90;;;28.40;92.10;;;;;;5094091;28;20057;-73
2023/07/05 03:06:43;;;;;;;1999.90;999.90;;;28.40;91.70;;;;;;5091812;28;20085;-72
2023/07/05 03:09:11;;;;;;;1999.90;999.90;;;28.20;91.40;;;;;;5096515;28;20086;-72
2023/07/05 03:11:39;;;;;;;1999.90;999.90;;;28.30;91.90;;;;;;5091972;28;20039;-72
2023/07/05 03:14:06;;;;;;;1999.90;999.90;;;28.00;92.20;;;;;;5092583;28;20111;-72
2023/07/05 03:16:33;;;;;;;1999.90;999.90;;;27.60;92.30;;;;;;5094278;28;20028;-72
2023/07/05 03:19:01;;;;;;;1999.90;999.90;;;27.10;92.30;;;;;;5099757;28;20592;-72
2023/07/05 03:21:28;;;;;;;1999.90;999.90;;;26.30;92.20;;;;;;5096905;28;20023;-71
2023/07/05 03:23:55;;;;;;;1999.90;999.90;;;25.50;93.20;;;;;;5106981;28;20043;-71
2023/07/05 03:26:23;;;;;;;1999.90;999.90;;;25.00;93.80;;;;;;5095123;28;20031;-72
2023/07/05 03:28:50;;;;;;;1999.90;999.90;;;24.50;94.30;;;;;;5088643;28;20028;-72
2023/07/05 03:31:18;;;;;;;1999.90;999.90;;;24.20;94.70;;;;;;5093646;28;20024;-71
2023/07/05 03:33:45;;;;;;;1999.90;999.90;;;23.90;95.80;;;;;;5083469;28;20055;-71
2023/07/05 03:36:19;;;;;;;1999.90;999.90;;;23.70;96.30;;;;;;5091820;28;20039;-74
2023/07/05 03:38:48;;;;;;;1999.90;999.90;;;23.60;96.70;;;;;;5093451;28;20058;-72
2023/07/05 03:41:24;;;;;;;1999.90;999.90;;;23.50;97.10;;;;;;5093540;28;20024;-73
2023/07/05 03:44:03;;;;;;;1999.90;999.90;;;23.30;96.70;;;;;;5092186;28;20044;-73
2023/07/05 03:46:30;;;;;;;1999.90;999.90;;;23.20;96.90;;;;;;5088128;28;20081;-72
2023/07/05 03:48:58;;;;;;;1999.90;999.90;;;23.30;96.70;;;;;;5096639;28;20429;-72
2023/07/05 03:51:25;;;;;;;1999.90;999.90;;;23.50;96.50;;;;;;5090659;28;20098;-72
2023/07/05 03:53:55;;;;;;;1999.90;999.90;;;23.60;96.60;;;;;;5081764;28;20360;-71
2023/07/05 03:56:23;;;;;;;1999.90;999.90;;;23.50;96.70;;;;;;5079073;28;20291;-72
2023/07/05 03:58:51;;;;;;;1999.90;999.90;;;23.50;96.00;;;;;;5090771;28;20067;-72
2023/07/05 04:01:26;;;;;;;1999.90;999.90;;;23.30;96.00;;;;;;5081134;28;20063;-71
2023/07/05 04:03:56;;;;;;;1999.90;999.90;;;23.00;96.40;;;;;;5090274;28;20604;-72
2023/07/05 04:06:28;;;;;;;1999.90;999.90;;;22.70;96.90;;;;;;5085058;28;20044;-71
2023/07/05 04:08:55;;;;;;;1999.90;999.90;;;22.50;96.50;;;;;;5086159;28;20028;-71
2023/07/05 04:11:23;;;;;;;1999.90;999.90;;;22.20;96.50;;;;;;5085987;28;20028;-71
2023/07/05 04:13:53;;;;;;;1999.90;999.90;;;22.00;96.80;;;;;;5092569;28;20026;-71
2023/07/05 04:16:24;;;;;;;1999.90;999.90;;;21.80;97.00;;;;;;5089214;28;20024;-70
2023/07/05 04:18:54;;;;;;;1999.90;999.90;;;21.70;97.50;;;;;;5086393;28;20036;-70
2023/07/05 04:21:22;;;;;;;1999.90;999.90;;;21.60;97.70;;;;;;5086707;28;21698;-72
2023/07/05 04:23:50;;;;;;;1999.90;999.90;;;21.50;97.90;;;;;;5093914;28;20023;-72
2023/07/05 04:26:20;;;;;;;1999.90;999.90;;;21.60;98.10;;;;;;5085383;28;20098;-72
2023/07/05 04:28:48;;;;;;;1999.90;999.90;;;21.60;98.20;;;;;;5091678;28;20519;-72
2023/07/05 04:31:21;;;;;;;1999.90;999.90;;;21.70;97.80;;;;;;5088888;28;20027;-72
2023/07/05 04:33:48;;;;;;;1999.90;999.90;;;21.80;97.90;;;;;;5092986;28;20053;-72
2023/07/05 04:36:15;;;;;;;1999.90;999.90;;;22.00;97.60;;;;;;5089236;28;20059;-71
2023/07/05 04:38:43;;;;;;;1999.90;999.90;;;22.10;97.30;;;;;;5090625;28;20028;-70
2023/07/05 04:41:10;;;;;;;1999.90;999.90;;;22.30;97.00;;;;;;5082766;28;20028;-71
2023/07/05 04:43:38;;;;;;;1999.90;999.90;;;22.20;96.30;;;;;;5087644;28;20046;-70
2023/07/05 04:46:05;;;;;;;1999.90;999.90;;;22.10;96.70;;;;;;5081702;28;20046;-72
2023/07/05 04:48:32;;;;;;;1999.90;999.90;;;22.00;97.00;;;;;;5088535;28;20110;-71
2023/07/05 04:51:00;;;;;;;1999.90;999.90;;;21.80;97.50;;;;;;5085870;28;20020;-72
2023/07/05 04:53:29;;;;;;;1999.90;999.90;;;21.70;97.30;;;;;;5084325;28;20047;-71
2023/07/05 04:55:58;;;;;;;1999.90;999.90;;;21.50;97.60;;;;;;5088733;28;20028;-72
2023/07/05 04:58:26;;;;;;;1999.90;999.90;;;21.30;97.80;;;;;;5088216;28;20028;-71
2023/07/05 05:01:02;;;;;;;1999.90;999.90;;;21.10;97.80;;;;;;5086143;28;20038;-71
2023/07/05 05:03:30;;;;;;;1999.90;999.90;;;20.90;98.30;;;;;;5083063;28;20414;-72
2023/07/05 05:05:57;;;;;;;1999.90;999.90;;;20.80;98.70;;;;;;5085158;28;20028;-73
2023/07/05 05:08:25;;;;;;;1999.90;999.90;;;20.70;98.60;;;;;;5086382;28;20028;-72
2023/07/05 05:11:00;;;;;;;1999.90;999.90;;;20.70;98.60;;;;;;5082884;28;20127;-73
2023/07/05 05:13:30;;;;;;;1999.90;999.90;;;20.70;98.40;;;;;;5088334;28;20040;-72
2023/07/05 05:15:58;;;;;;;1999.90;999.90;;;20.70;98.60;;;;;;5086130;28;20054;-71
2023/07/05 05:18:28;;;;;;;1999.90;999.90;;;20.80;98.80;;;;;;5087341;28;20047;-71
2023/07/05 05:20:56;;;;;;;1999.90;999.90;;;20.80;98.80;;;;;;5091398;28;20096;-71
2023/07/05 05:23:23;;;;;;;1999.90;999.90;;;20.90;98.60;;;;;;5092388;28;20036;-72
2023/07/05 05:25:51;;;;;;;1999.90;999.90;;;20.80;98.40;;;;;;5093762;28;20103;-72
2023/07/05 05:28:19;;;;;;;1999.90;999.90;;;20.80;98.00;;;;;;5086128;28;20036;-72
2023/07/05 05:30:46;;;;;;;1999.90;999.90;;;20.80;98.00;;;;;;5090216;28;20050;-73
2023/07/05 05:33:15;;;;;;;1999.90;999.90;;;20.80;98.10;;;;;;5089884;28;20020;-72
2023/07/05 05:35:50;;;;;;;1999.90;999.90;;;20.80;98.00;;;;;;5088848;28;20031;-71
2023/07/05 05:38:18;;;;;;;1999.90;999.90;;;20.70;97.90;;;;;;5089322;28;20012;-71
2023/07/05 05:40:49;;;;;;;1999.90;999.90;;;20.70;98.10;;;;;;5084888;28;20038;-72
2023/07/05 05:43:18;;;;;;;1999.90;999.90;;;20.60;98.30;;;;;;5093287;28;20486;-72
2023/07/05 05:45:45;;;;;;;1999.90;999.90;;;20.60;98.20;;;;;;5082295;28;20032;-74
2023/07/05 05:48:13;;;;;;;1999.90;999.90;;;20.60;98.30;;;;;;5092403;28;20026;-72
2023/07/05 05:50:40;;;;;;;1999.90;999.90;;;20.50;98.50;;;;;;5096112;28;20031;-71
2023/07/05 05:53:10;;;;;;;1999.90;999.90;;;20.50;98.60;;;;;;5095776;28;20020;-72
2023/07/05 05:55:41;;;;;;;1999.90;999.90;;;20.40;98.50;;;;;;5083121;28;20035;-72
2023/07/05 05:58:11;;;;;;;1999.90;999.90;;;20.50;98.60;;;;;;5086212;28;20024;-72
2023/07/05 06:00:39;;;;;;;1999.90;999.90;;;20.50;98.80;;;;;;5080484;28;20023;-71
2023/07/05 06:03:07;;;;;;;1999.90;999.90;;;20.40;98.90;;;;;;5089395;28;20499;-73
2023/07/05 06:05:36;;;;;;;1999.90;999.90;;;20.40;99.50;;;;;;5083714;28;20122;-75
2023/07/05 06:08:03;;;;;;;1999.90;999.90;;;20.40;99.40;;;;;;5081872;28;20028;-70
2023/07/05 06:10:31;;;;;;;1999.90;999.90;;;20.40;99.30;;;;;;5078363;28;20093;-71
2023/07/05 06:12:59;;;;;;;1999.90;999.90;;;20.40;99.30;;;;;;5085456;28;20036;-74
2023/07/05 06:15:26;;;;;;;1999.90;999.90;;;20.50;99.10;;;;;;5079011;28;20031;-71
2023/07/05 06:17:54;;;;;;;1999.90;999.90;;;20.60;98.70;;;;;;5080859;28;21533;-73
2023/07/05 06:20:24;;;;;;;1999.90;999.90;;;20.80;98.50;;;;;;5077301;28;20036;-74
2023/07/05 06:22:52;;;;;;;1999.90;999.90;;;20.90;98.60;;;;;;5080613;28;20036;-71
2023/07/05 06:25:19;;;;;;;1999.90;999.90;;;21.10;98.40;;;;;;5084977;28;20104;-72
2023/07/05 06:27:46;;;;;;;1999.90;999.90;;;21.10;98.10;;;;;;5078214;28;20073;-71
2023/07/05 06:30:14;;;;;;;1999.90;999.90;;;21.20;98.00;;;;;;5082876;28;20020;-71
2023/07/05 06:32:42;;;;;;;1999.90;999.90;;;21.20;97.80;;;;;;5084701;28;20107;-71
2023/07/05 06:35:10;;;;;;;1999.90;999.90;;;21.10;97.70;;;;;;5081956;28;20122;-70
2023/07/05 06:37:38;;;;;;;1999.90;999.90;;;21.00;97.60;;;;;;5082607;28;20074;-73
2023/07/05 06:40:06;;;;;;;1999.90;999.90;;;20.70;97.80;;;;;;5079354;28;20115;-72
2023/07/05 06:42:33;;;;;;;1999.90;999.90;;;20.50;98.00;;;;;;5083364;28;20054;-73
2023/07/05 06:45:00;;;;;;;1999.90;999.90;;;20.20;98.40;;;;;;5081625;28;20057;-73
2023/07/05 06:47:28;;;;;;;1999.90;999.90;;;19.90;98.90;;;;;;5079080;28;20090;-70
2023/07/05 06:49:55;;;;;;;1999.90;999.90;;;19.60;99.30;;;;;;5087578;28;20714;-73
2023/07/05 06:52:22;;;;;;;1999.90;999.90;;;19.50;99.90;;;;;;5088957;28;20466;-74
2023/07/05 06:54:50;;;;;;;1999.90;999.90;;;19.20;99.90;;;;;;5082473;28;20471;-71
2023/07/05 06:57:17;;;;;;;1999.90;999.90;;;19.00;99.90;;;;;;5084899;28;20039;-72
2023/07/05 06:59:45;;;;;;;1999.90;999.90;;;18.80;99.90;;;;;;5080208;28;20043;-71
2023/07/05 07:02:12;;;;;;;1999.90;999.90;;;18.60;99.90;;;;;;5080199;28;20584;-71
2023/07/05 07:04:40;;;;;;;1999.90;999.90;;;18.40;99.90;;;;;;5083892;28;20192;-71
2023/07/05 07:07:07;;;;;;;1999.90;999.90;;;18.20;99.90;;;;;;5086345;28;20033;-70
2023/07/05 07:09:35;;;;;;;1999.90;999.90;;;18.10;99.90;;;;;;5084598;28;20048;-71
2023/07/05 07:12:03;;;;;;;1999.90;999.90;;;17.90;99.90;;;;;;5078570;28;20039;-71
2023/07/05 07:14:30;;;;;;;1999.90;999.90;;;17.80;99.90;;;;;;5082846;28;20479;-72
2023/07/05 07:16:58;;;;;;;1999.90;999.90;;;17.70;99.90;;;;;;5083769;28;20375;-71
2023/07/05 07:19:25;;;;;;;1999.90;999.90;;;17.60;99.90;;;;;;5090330;28;20355;-69
2023/07/05 07:21:53;;;;;;;1999.90;999.90;;;17.40;99.90;;;;;;5084594;28;20028;-70
2023/07/05 07:24:20;;;;;;;1999.90;999.90;;;17.30;99.90;;;;;;5091976;28;20043;-71
2023/07/05 07:26:48;;;;;;;1999.90;999.90;;;17.30;99.90;;;;;;5088357;28;20027;-71
2023/07/05 07:29:15;;;;;;;1999.90;999.90;;;17.20;99.90;;;;;;5089373;28;20521;-71
2023/07/05 07:31:42;;;;;;;1999.90;999.90;;;17.20;99.90;;;;;;5083989;28;20118;-70
2023/07/05 07:34:10;;;;;;;1999.90;999.90;;;17.20;99.90;;;;;;5089493;28;20032;-70
2023/07/05 07:36:38;;;;;;;1999.90;999.90;;;17.20;99.90;;;;;;5086061;28;20526;-70
2023/07/05 07:39:05;;;;;;;1999.90;999.90;;;17.20;99.90;;;;;;5091886;28;20568;-70
2023/07/05 07:41:37;;;;;;;1999.90;999.90;;;17.20;99.90;;;;;;5085534;28;20036;-69
2023/07/05 07:44:07;;;;;;;1999.90;999.90;;;17.20;99.90;;;;;;5086953;28;20035;-71
2023/07/05 07:46:36;;;;;;;1999.90;999.90;;;17.20;99.90;;;;;;5087509;28;20107;-72
2023/07/05 07:49:06;;;;;;;1999.90;999.90;;;17.30;99.90;;;;;;5083401;28;20786;-72
2023/07/05 07:51:37;;;;;;;1999.90;999.90;;;17.30;99.90;;;;;;5085668;28;20549;-71
2023/07/05 07:54:05;;;;;;;1999.90;999.90;;;17.30;99.90;;;;;;5086108;28;20133;-70
2023/07/05 07:56:33;;;;;;;1999.90;999.90;;;17.20;99.90;;;;;;5083174;28;20040;-70
2023/07/05 07:59:04;;;;;;;1999.90;999.90;;;17.20;99.90;;;;;;5087753;28;20050;-71
2023/07/05 08:01:37;;;;;;;1999.90;999.90;;;17.20;99.90;;;;;;5084509;28;20104;-73
2023/07/05 08:04:07;;;;;;;1999.90;999.90;;;17.20;99.90;;;;;;5088095;28;20436;-72
2023/07/05 08:06:39;;;;;;;1999.90;999.90;;;17.10;99.90;;;;;;5084249;28;20471;-72
2023/07/05 08:09:08;;;;;;;1999.90;999.90;;;17.00;99.90;;;;;;5091793;28;20124;-71
2023/07/05 08:11:36;;;;;;;1999.90;999.90;;;16.90;99.90;;;;;;5082396;28;20020;-71
2023/07/05 08:14:03;;;;;;;1999.90;999.90;;;16.80;99.90;;;;;;5085721;28;20036;-72
2023/07/05 08:16:30;;;;;;;1999.90;999.90;;;16.70;99.90;;;;;;5080788;28;20036;-71
2023/07/05 08:18:58;;;;;;;1999.90;999.90;;;16.70;99.90;;;;;;5080503;28;20027;-72
2023/07/05 08:21:26;;;;;;;1999.90;999.90;;;16.60;99.90;;;;;;5079408;28;20406;-71
2023/07/05 08:23:53;;;;;;;1999.90;999.90;;;16.60;99.90;;;;;;5080495;28;20482;-71
2023/07/05 08:26:21;;;;;;;1999.90;999.90;;;16.60;99.90;;;;;;5083529;28;20237;-72
2023/07/05 08:28:48;;;;;;;1999.90;999.90;;;16.50;99.90;;;;;;5076362;28;20104;-72
2023/07/05 08:31:16;;;;;;;1999.90;999.90;;;16.50;99.90;;;;;;5084485;28;20039;-71
2023/07/05 08:33:44;;;;;;;1999.90;999.90;;;16.50;99.90;;;;;;5085534;28;20039;-73
2023/07/05 08:36:15;;;;;;;1999.90;999.90;;;16.50;99.90;;;;;;5080797;28;20038;-71
2023/07/05 08:38:50;;;;;;;1999.90;999.90;;;16.40;99.90;;;;;;5085250;28;20042;-71
2023/07/05 08:41:31;;;;;;;1999.90;999.90;;;16.40;99.90;;;;;;5081933;28;20031;-72
2023/07/05 08:44:20;;;;;;;1999.90;999.90;;;16.30;99.90;;;;;;5087181;28;20060;-71
2023/07/05 08:47:03;;;;;;;1999.90;999.90;;;16.20;99.90;;;;;;5080903;28;20028;-71
2023/07/05 08:49:43;;;;;;;1999.90;999.90;;;16.20;99.90;;;;;;5080886;28;20040;-71
2023/07/05 08:52:26;;;;;;;1999.90;999.90;;;16.20;99.90;;;;;;5087140;28;20040;-71
2023/07/05 08:55:01;;;;;;;1999.90;999.90;;;16.10;99.90;;;;;;5083638;28;20054;-72
2023/07/05 08:57:43;;;;;;;1999.90;999.90;;;16.00;99.90;;;;;;5093494;28;20444;-72
2023/07/05 09:00:17;;;;;;;1999.90;999.90;;;15.90;99.90;;;;;;5082841;28;20061;-73
2023/07/05 09:02:45;;;;;;;1999.90;999.90;;;15.90;99.90;;;;;;5090743;28;20051;-72
2023/07/05 09:05:35;;;;;;;1999.90;999.90;;;15.80;99.90;;;;;;5084085;28;20054;-72
2023/07/05 09:08:05;;;;;;;1999.90;999.90;;;15.70;99.90;;;;;;5083157;28;20089;-73
2023/07/05 09:10:48;;;;;;;1999.90;999.90;;;15.60;99.90;;;;;;5087835;28;20119;-72
2023/07/05 09:13:35;;;;;;;1999.90;999.90;;;15.60;99.90;;;;;;5089145;28;20498;-72
2023/07/05 09:16:36;;;;;;;1999.90;999.90;;;15.60;99.90;;;;;;5085569;28;20166;-71
2023/07/05 09:19:20;;;;;;;1999.90;999.90;;;15.50;99.90;;;;;;5096220;28;20039;-71
2023/07/05 09:22:03;;;;;;;1999.90;999.90;;;15.40;99.90;;;;;;5086252;28;20035;-69
2023/07/05 09:24:38;;;;;;;1999.90;999.90;;;15.30;99.90;;;;;;5089302;28;20465;-70
2023/07/05 09:27:17;;;;;;;1999.90;999.90;;;15.30;99.90;;;;;;5081187;28;20046;-70
2023/07/05 09:30:13;;;;;;;1999.90;999.90;;;15.20;99.90;;;;;;5086921;28;20028;-70
2023/07/05 09:32:50;;;;;;;1999.90;999.90;;;15.20;99.90;;;;;;5085655;28;20073;-69
2023/07/05 09:35:23;;;;;;;1999.90;999.90;;;15.20;99.90;;;;;;5082418;28;20100;-69
2023/07/05 09:38:15;;;;;;;1999.90;999.90;;;15.20;99.90;;;;;;5093985;28;20043;-70
2023/07/05 09:41:07;;;;;;;1999.90;999.90;;;15.10;99.90;;;;;;5086536;28;20031;-70
2023/07/05 09:43:36;;;;;;;1999.90;999.90;;;15.10;99.90;;;;;;5088564;28;20040;-71
2023/07/05 09:46:07;;;;;;;1999.90;999.90;;;14.90;99.90;;;;;;5089459;28;20073;-70
2023/07/05 09:48:42;;;;;;;1999.90;999.90;;;14.80;99.90;;;;;;5089500;28;20024;-70
2023/07/05 09:51:12;;;;;;;1999.90;999.90;;;14.80;99.90;;;;;;5083910;28;20375;-69
2023/07/05 09:53:48;;;;;;;1999.90;999.90;;;14.70;99.90;;;;;;5083233;28;20410;-70
2023/07/05 09:56:26;;;;;;;1999.90;999.90;;;14.50;99.90;;;;;;5086147;28;20033;-71
2023/07/05 09:59:21;;;;;;;1999.90;999.90;;;14.40;99.90;;;;;;5081940;28;20039;-71
2023/07/05 10:02:08;;;;;;;1999.90;999.90;;;14.30;99.90;;;;;;5083011;28;20032;-70
2023/07/05 10:04:50;;;;;;;1999.90;999.90;;;14.20;99.90;;;;;;5077581;28;20048;-71
2023/07/05 10:07:20;;;;;;;1999.90;999.90;;;14.10;99.90;;;;;;5091530;28;20027;-70
2023/07/05 10:10:10;;;;;;;1999.90;999.90;;;14.00;99.90;;;;;;5084173;28;20024;-72
2023/07/05 10:12:40;;;;;;;1999.90;999.90;;;13.90;99.90;;;;;;5082233;28;20481;-72
2023/07/05 10:15:35;;;;;;;1999.90;999.90;;;13.90;99.90;;;;;;5087290;28;20164;-71
2023/07/05 10:18:02;;;;;;;1999.90;999.90;;;13.80;99.90;;;;;;5088954;28;20044;-71
2023/07/05 10:20:37;;;;;;;1999.90;999.90;;;13.70;99.90;;;;;;5084548;28;20043;-71
2023/07/05 10:23:16;;;;;;;1999.90;999.90;;;13.60;99.90;;;;;;5087026;28;20028;-70
2023/07/05 10:25:44;;;;;;;1999.90;999.90;;;13.60;99.90;;;;;;5078670;28;20378;-70
2023/07/05 10:28:21;;;;;;;1999.90;999.90;;;13.50;99.90;;;;;;5085105;28;20681;-71
2023/07/05 10:30:59;;;;;;;1999.90;999.90;;;13.40;99.90;;;;;;5085985;28;20057;-71
2023/07/05 10:33:28;;;;;;;1999.90;999.90;;;13.40;99.90;;;;;;5088866;28;20040;-70
2023/07/05 10:36:05;;;;;;;1999.90;999.90;;;13.30;99.90;;;;;;5084526;28;20031;-71
2023/07/05 10:38:47;;;;;;;1999.90;999.90;;;13.20;99.90;;;;;;5094615;28;20094;-70
2023/07/05 10:41:34;;;;;;;1999.90;999.90;;;13.20;99.90;;;;;;5089176;28;20498;-71
2023/07/05 10:44:08;;;;;;;1999.90;999.90;;;13.30;99.90;;;;;;5092571;28;20127;-72
2023/07/05 10:46:38;;;;;;;1999.90;999.90;;;13.30;99.90;;;;;;5095085;28;20444;-71
2023/07/05 10:49:12;;;;;;;1999.90;999.90;;;13.30;99.90;;;;;;5091501;28;20086;-70
2023/07/05 10:51:43;;;;;;;1999.90;999.90;;;13.30;99.90;;;;;;5086483;28;20015;-70
2023/07/05 10:54:33;;;;;;;1999.90;999.90;;;13.30;99.90;;;;;;5081927;28;20028;-71
2023/07/05 10:57:15;;;;;;;1999.90;999.90;;;13.30;99.90;;;;;;5090618;28;20015;-71
2023/07/05 10:59:45;;;;;;;1999.90;999.90;;;13.20;99.90;;;;;;5090499;28;20047;-71
2023/07/05 11:02:50;;;;;;;1999.90;999.90;;;13.20;99.90;;;;;;5095522;28;20031;-71
2023/07/05 11:05:25;;;;;;;1999.90;999.90;;;13.10;99.90;;;;;;5082021;28;20048;-71
2023/07/05 11:07:56;;;;;;;1999.90;999.90;;;13.10;99.90;;;;;;5098533;28;20024;-71
2023/07/05 11:10:25;;;;;;;1999.90;999.90;;;13.10;99.90;;;;;;5088385;28;20036;-71
2023/07/05 11:12:53;;;;;;;1999.90;999.90;;;13.00;99.90;;;;;;5098320;28;20108;-72
2023/07/05 11:15:21;;;;;;;1999.90;999.90;;;13.00;99.90;;;;;;5084289;28;20024;-70
2023/07/05 11:17:50;;;;;;;1999.90;999.90;;;13.00;99.90;;;;;;5093821;28;20032;-71
2023/07/05 11:20:39;;;;;;;1999.90;999.90;;;13.00;99.90;;;;;;5095133;27;20031;-71
2023/07/05 11:23:10;;;;;;;1999.90;999.90;;;12.90;99.90;;;;;;5092518;28;20065;-70
2023/07/05 11:25:58;;;;;;;1999.90;999.90;;;12.80;99.90;;;;;;5092458;28;20024;-71
2023/07/05 11:28:37;;;;;;;1999.90;999.90;;;12.70;99.90;;;;;;5090920;28;20036;-70
2023/07/05 11:31:09;;;;;;;1999.90;999.90;;;12.60;99.90;;;;;;5097044;28;20035;-71
2023/07/05 11:33:37;;;;;;;1999.90;999.90;;;12.50;99.90;;;;;;5086106;28;20028;-70
2023/07/05 11:36:25;;;;;;;1999.90;999.90;;;12.50;99.90;;;;;;5092153;28;20387;-70
2023/07/05 11:38:56;;;;;;;1999.90;999.90;;;12.40;99.90;;;;;;5092813;28;20509;-70
2023/07/05 11:41:41;;;;;;;1999.90;999.90;;;12.20;99.90;;;;;;5087573;28;20031;-70
2023/07/05 11:44:30;;;;;;;1999.90;999.90;;;12.20;99.90;;;;;;5082959;28;20048;-70
2023/07/05 11:46:58;;;;;;;1999.90;999.90;;;12.10;99.90;;;;;;5085268;28;20387;-70
2023/07/05 11:49:32;;;;;;;1999.90;999.90;;;12.00;99.90;;;;;;5085404;28;20016;-70
2023/07/05 11:52:17;;;;;;;1999.90;999.90;;;12.00;99.90;;;;;;5097100;27;20459;-69
2023/07/05 11:54:53;;;;;;;1999.90;999.90;;;11.90;99.90;;;;;;5085197;28;20028;-69
2023/07/05 11:57:23;;;;;;;1999.90;999.90;;;11.90;99.90;;;;;;5084871;28;20035;-70
2023/07/05 12:00:02;;;;;;;1999.90;999.90;;;11.90;99.90;;;;;;5089986;28;20494;-70
2023/07/05 12:02:57;;;;;;;1999.90;999.90;;;11.90;99.90;;;;;;5088493;28;20092;-69
2023/07/05 12:05:28;;;;;;;1999.90;999.90;;;11.80;99.90;;;;;;5082941;28;20058;-70
2023/07/05 12:08:29;;;;;;;1999.90;999.90;;;11.80;99.90;;;;;;5087179;28;20537;-70
2023/07/05 12:11:01;;;;;;;1999.90;999.90;;;11.80;99.90;;;;;;5084528;28;20035;-69
2023/07/05 12:13:35;;;;;;;1999.90;999.90;;;11.70;99.90;;;;;;5092185;28;20399;-69
2023/07/05 12:16:05;;;;;;;1999.90;999.90;;;11.70;99.90;;;;;;5090168;28;20070;-71
2023/07/05 12:18:33;;;;;;;1999.90;999.90;;;11.70;99.90;;;;;;5088067;28;20043;-70
2023/07/05 12:21:05;;;;;;;1999.90;999.90;;;11.70;99.90;;;;;;5080595;28;20041;-69
2023/07/05 12:23:36;;;;;;;1999.90;999.90;;;11.80;99.90;;;;;;5086311;28;20032;-70
2023/07/05 12:26:20;;;;;;;1999.90;999.90;;;11.80;99.90;;;;;;5090496;28;20035;-72